createdAt,value
2022-08-21T00:00:35.315Z,100132.34
2022-08-21T00:01:14.633Z,100128.53
2022-08-21T00:01:51.584Z,100132.03
2022-08-21T00:02:28.363Z,100128.69
2022-08-21T00:03:06.848Z,100128.69
2022-08-21T00:03:46.087Z,100134.88
2022-08-21T00:04:29.447Z,100124.31
2022-08-21T00:05:10.461Z,100122.47
2022-08-21T00:05:52.888Z,100127.81
2022-08-21T00:06:38.428Z,100128.41
2022-08-21T00:07:26.755Z,100122.66
2022-08-21T00:08:04.990Z,100129.47
2022-08-21T00:08:42.286Z,100124.75
2022-08-21T00:09:20.691Z,100121.97
2022-08-21T00:09:57.957Z,100122.81
2022-08-21T00:10:35.878Z,100125.31
2022-08-21T00:11:12.965Z,100122.66
2022-08-21T00:11:50.729Z,100120.81
2022-08-21T00:12:29.185Z,100127.00
2022-08-21T00:13:08.074Z,100126.53
2022-08-21T00:13:46.508Z,100126.06
2022-08-21T00:14:24.703Z,100119.03
2022-08-21T00:15:02.511Z,100125.09
2022-08-21T00:15:39.767Z,100125.09
2022-08-21T00:16:17.372Z,100122.41
2022-08-21T00:16:57.215Z,100125.94
2022-08-21T00:17:39.666Z,100117.75
2022-08-21T00:18:21.178Z,100123.13
2022-08-21T00:19:02.940Z,100117.06
2022-08-21T00:19:43.194Z,100126.78
2022-08-21T00:20:24.810Z,100126.91
2022-08-21T00:21:09.256Z,100119.72
2022-08-21T00:21:59.239Z,100117.19
2022-08-21T00:23:14.537Z,100123.41
2022-08-21T00:23:53.457Z,100123.13
2022-08-21T00:24:30.513Z,100121.72
2022-08-21T00:25:07.587Z,100112.69
2022-08-21T00:25:45.084Z,100115.34
2022-08-21T00:26:22.874Z,100114.38
2022-08-21T00:26:59.973Z,100117.19
2022-08-21T00:27:37.598Z,100109.88
2022-08-21T00:28:16.792Z,100115.34
2022-08-21T00:28:54.330Z,100109.63
2022-08-21T00:29:31.899Z,100116.66
2022-08-21T00:30:09.102Z,100110.47
2022-08-21T00:30:46.263Z,100114.66
2022-08-21T00:31:23.736Z,100106.63
2022-08-21T00:32:01.257Z,100111.31
2022-08-21T00:32:40.453Z,100104.13
2022-08-21T00:33:19.209Z,100109.28
2022-08-21T00:34:00.758Z,100110.00
2022-08-21T00:34:42.452Z,100106.47
2022-08-21T00:35:30.951Z,100107.63
2022-08-21T00:36:18.580Z,100099.59
2022-08-21T00:37:04.827Z,100103.78
2022-08-21T00:37:51.424Z,100108.03
2022-08-21T00:38:38.204Z,100111.00
2022-08-21T00:39:15.501Z,100110.84
2022-08-21T00:39:53.252Z,100111.16
2022-08-21T00:40:32.564Z,100112.69
2022-08-21T00:41:29.823Z,100113.00
2022-08-21T00:42:08.157Z,100103.25
2022-08-21T00:42:53.176Z,100110.31
2022-08-21T00:43:40.439Z,100108.94
2022-08-21T00:44:25.922Z,100111.56
2022-08-21T00:45:06.931Z,100114.13
2022-08-21T00:45:46.026Z,100108.63
2022-08-21T00:46:28.249Z,100101.72
2022-08-21T00:47:04.953Z,100112.78
2022-08-21T00:47:42.726Z,100107.75
2022-08-21T00:48:20.011Z,100113.78
2022-08-21T00:48:59.087Z,100108.44
2022-08-21T00:49:35.887Z,100109.94
2022-08-21T00:50:19.654Z,100110.03
2022-08-21T00:50:59.819Z,100107.19
2022-08-21T00:51:42.104Z,100108.72
2022-08-21T00:52:30.569Z,100108.72
2022-08-21T00:53:17.082Z,100107.19
2022-08-21T00:54:10.755Z,100110.72
2022-08-21T00:54:55.524Z,100110.41
2022-08-21T00:55:34.237Z,100102.06
2022-08-21T00:56:11.214Z,100103.56
2022-08-21T00:56:48.520Z,100106.25
2022-08-21T00:57:28.242Z,100107.47
2022-08-21T00:58:07.310Z,100106.47
2022-08-21T00:58:46.525Z,100107.16
2022-08-21T00:59:25.818Z,100102.59
2022-08-21T01:00:03.297Z,100100.59
2022-08-21T01:00:41.860Z,100106.25
2022-08-21T01:01:19.546Z,100092.72
2022-08-21T01:01:56.601Z,100100.59
2022-08-21T01:02:35.316Z,100094.09
2022-08-21T01:03:15.030Z,100099.59
2022-08-21T01:03:56.045Z,100107.09
2022-08-21T01:04:36.845Z,100100.75
2022-08-21T01:05:19.095Z,100103.72
2022-08-21T01:06:00.300Z,100101.06
2022-08-21T01:06:43.263Z,100098.84
2022-08-21T01:07:24.593Z,100093.31
2022-08-21T01:08:10.596Z,100089.66
2022-08-21T01:08:57.963Z,100094.09
2022-08-21T01:09:40.955Z,100098.06
2022-08-21T01:10:20.584Z,100091.56
2022-08-21T01:11:03.780Z,100095.38
2022-08-21T01:11:48.580Z,100086.00
2022-08-21T01:12:33.935Z,100094.56
2022-08-21T01:13:17.449Z,100096.22
2022-08-21T01:13:54.543Z,100094.72
2022-08-21T01:14:32.105Z,100090.03
2022-08-21T01:15:09.022Z,100094.41
2022-08-21T01:15:46.224Z,100097.59
2022-08-21T01:16:23.188Z,100101.09
2022-08-21T01:17:00.967Z,100095.53
2022-08-21T01:17:38.718Z,100100.91
2022-08-21T01:18:17.363Z,100095.06
2022-08-21T01:18:55.364Z,100102.59
2022-08-21T01:19:32.997Z,100102.97
2022-08-21T01:20:11.126Z,100102.13
2022-08-21T01:20:48.965Z,100101.72
2022-08-21T01:21:28.381Z,100094.56
2022-08-21T01:22:05.864Z,100102.50
2022-08-21T01:22:43.657Z,100095.75
2022-08-21T01:23:22.463Z,100098.59
2022-08-21T01:24:00.521Z,100097.38
2022-08-21T01:24:38.562Z,100099.06
2022-08-21T01:25:18.137Z,100096.22
2022-08-21T01:25:55.864Z,100096.38
2022-08-21T01:26:33.920Z,100091.72
2022-08-21T01:27:14.851Z,100097.22
2022-08-21T01:27:55.517Z,100096.56
2022-08-21T01:28:38.987Z,100091.19
2022-08-21T01:29:29.248Z,100093.31
2022-08-21T01:30:13.829Z,100091.66
2022-08-21T01:30:52.696Z,100090.97
2022-08-21T01:31:32.535Z,100090.28
2022-08-21T01:32:13.187Z,100088.28
2022-08-21T01:32:50.469Z,100083.25
2022-08-21T01:33:28.514Z,100090.28
2022-08-21T01:34:06.673Z,100095.78
2022-08-21T01:34:44.245Z,100084.09
2022-08-21T01:35:22.153Z,100084.94
2022-08-21T01:36:00.850Z,100088.78
2022-08-21T01:36:38.849Z,100088.63
2022-08-21T01:37:17.915Z,100087.09
2022-08-21T01:37:55.291Z,100090.38
2022-08-21T01:38:32.725Z,100096.56
2022-08-21T01:39:10.982Z,100093.88
2022-08-21T01:39:49.240Z,100097.44
2022-08-21T01:40:27.093Z,100103.59
2022-08-21T01:41:05.400Z,100099.25
2022-08-21T01:41:43.525Z,100106.44
2022-08-21T01:42:21.280Z,100102.25
2022-08-21T01:42:59.208Z,100099.56
2022-08-21T01:43:40.828Z,100099.72
2022-08-21T01:44:22.992Z,100101.75
2022-08-21T01:45:06.335Z,100099.78
2022-08-21T01:45:52.544Z,100101.91
2022-08-21T01:46:39.320Z,100105.75
2022-08-21T01:47:24.070Z,100102.56
2022-08-21T01:48:04.405Z,100103.25
2022-08-21T01:48:42.534Z,100103.09
2022-08-21T01:49:20.318Z,100100.25
2022-08-21T01:49:57.631Z,100104.44
2022-08-21T01:50:35.176Z,100102.94
2022-08-21T01:51:12.435Z,100094.91
2022-08-21T01:51:49.578Z,100099.25
2022-08-21T01:52:26.421Z,100102.78
2022-08-21T01:53:03.569Z,100107.91
2022-08-21T01:53:42.854Z,100100.19
2022-08-21T01:54:20.946Z,100107.22
2022-08-21T01:54:57.953Z,100106.22
2022-08-21T01:55:35.361Z,100098.03
2022-08-21T01:56:12.916Z,100098.88
2022-08-21T01:56:50.720Z,100101.41
2022-08-21T01:57:27.963Z,100093.22
2022-08-21T01:58:06.532Z,100093.22
2022-08-21T01:58:47.771Z,100094.91
2022-08-21T01:59:26.232Z,100094.03
2022-08-21T02:00:03.892Z,100096.56
2022-08-21T02:00:42.504Z,100091.91
2022-08-21T02:01:22.734Z,100102.94
2022-08-21T02:02:05.214Z,100095.06
2022-08-21T02:02:49.809Z,100100.25
2022-08-21T02:03:35.590Z,100100.25
2022-08-21T02:04:16.721Z,100101.59
2022-08-21T02:05:04.303Z,100095.56
2022-08-21T02:05:48.226Z,100095.41
2022-08-21T02:06:28.848Z,100098.94
2022-08-21T02:07:08.449Z,100090.59
2022-08-21T02:07:47.718Z,100105.81
2022-08-21T02:08:25.207Z,100100.78
2022-08-21T02:09:03.260Z,100097.44
2022-08-21T02:09:42.332Z,100101.75
2022-08-21T02:10:19.550Z,100100.63
2022-08-21T02:10:57.994Z,100096.25
2022-08-21T02:11:35.410Z,100095.56
2022-08-21T02:12:13.310Z,100095.88
2022-08-21T02:12:52.246Z,100092.91
2022-08-21T02:13:29.847Z,100090.06
2022-08-21T02:14:08.420Z,100092.75
2022-08-21T02:14:46.611Z,100088.53
2022-08-21T02:15:24.662Z,100086.88
2022-08-21T02:16:02.438Z,100093.22
2022-08-21T02:16:40.354Z,100087.84
2022-08-21T02:17:18.297Z,100090.38
2022-08-21T02:17:55.758Z,100087.03
2022-08-21T02:18:33.662Z,100091.53
2022-08-21T02:19:12.175Z,100081.16
2022-08-21T02:19:50.021Z,100085.34
2022-08-21T02:20:36.612Z,100087.19
2022-08-21T02:21:14.059Z,100092.53
2022-08-21T02:21:51.911Z,100084.50
2022-08-21T02:22:28.919Z,100088.00
2022-08-21T02:23:06.535Z,100083.50
2022-08-21T02:23:45.233Z,100084.34
2022-08-21T02:24:22.100Z,100080.84
2022-08-21T02:25:03.601Z,100079.97
2022-08-21T02:25:43.236Z,100080.28
2022-08-21T02:26:21.047Z,100082.81
2022-08-21T02:26:58.360Z,100079.44
2022-08-21T02:27:36.183Z,100082.81
2022-08-21T02:28:17.731Z,100073.94
2022-08-21T02:28:56.580Z,100081.44
2022-08-21T02:29:34.385Z,100073.56
2022-08-21T02:30:11.456Z,100077.22
2022-08-21T02:30:49.482Z,100085.78
2022-08-21T02:31:27.195Z,100077.75
2022-08-21T02:32:05.278Z,100083.81
2022-08-21T02:32:43.351Z,100081.81
2022-08-21T02:33:21.391Z,100077.44
2022-08-21T02:33:59.746Z,100080.84
2022-08-21T02:34:37.582Z,100085.34
2022-08-21T02:35:15.932Z,100078.16
2022-08-21T02:35:53.832Z,100082.50
2022-08-21T02:36:35.099Z,100079.00
2022-08-21T02:37:21.827Z,100078.31
2022-08-21T02:38:08.416Z,100081.44
2022-08-21T02:38:49.470Z,100075.22
2022-08-21T02:39:27.854Z,100071.41
2022-08-21T02:40:15.390Z,100076.78
2022-08-21T02:40:56.232Z,100075.94
2022-08-21T02:41:36.863Z,100071.88
2022-08-21T02:42:14.487Z,100075.22
2022-08-21T02:42:52.385Z,100069.88
2022-08-21T02:43:29.243Z,100077.09
2022-08-21T02:44:06.067Z,100079.44
2022-08-21T02:44:44.701Z,100083.81
2022-08-21T02:45:21.772Z,100084.81
2022-08-21T02:45:58.970Z,100082.13
2022-08-21T02:46:36.163Z,100075.78
2022-08-21T02:47:38.041Z,100072.41
2022-08-21T02:48:34.200Z,100080.44
2022-08-21T02:49:16.879Z,100070.91
2022-08-21T02:50:03.816Z,100083.97
2022-08-21T02:50:52.021Z,100069.22
2022-08-21T02:51:35.444Z,100073.56
2022-08-21T02:52:20.160Z,100074.56
2022-08-21T02:53:04.473Z,100070.03
2022-08-21T02:53:48.468Z,100069.88
2022-08-21T02:54:37.557Z,100070.75
2022-08-21T02:55:25.454Z,100069.06
2022-08-21T02:56:09.681Z,100068.06
2022-08-21T02:56:55.422Z,100071.06
2022-08-21T02:57:41.539Z,100075.56
2022-08-21T02:58:33.507Z,100069.06
2022-08-21T02:59:23.649Z,100063.19
2022-08-21T03:04:29.064Z,100063.19
2022-08-21T03:05:19.298Z,100063.19
2022-08-21T03:06:05.609Z,100065.03
2022-08-21T03:06:50.476Z,100064.16
2022-08-21T03:07:35.870Z,100066.00
2022-08-21T03:08:22.067Z,100066.44
2022-08-21T03:09:07.259Z,100059.06
2022-08-21T03:09:56.007Z,100067.09
2022-08-21T03:10:38.580Z,100064.28
2022-08-21T03:11:25.764Z,100066.97
2022-08-21T03:12:12.623Z,100062.47
2022-08-21T03:12:58.343Z,100066.97
2022-08-21T03:13:43.754Z,100058.94
2022-08-21T03:14:26.335Z,100067.97
2022-08-21T03:15:15.080Z,100062.63
2022-08-21T03:16:02.986Z,100066.13
2022-08-21T03:16:53.665Z,100068.69
2022-08-21T03:17:39.361Z,100063.31
2022-08-21T03:18:33.161Z,100064.44
2022-08-21T03:19:24.587Z,100061.91
2022-08-21T03:20:24.700Z,100066.28
2022-08-21T03:21:21.604Z,100066.28
2022-08-21T03:22:20.469Z,100066.28
2022-08-21T03:26:29.096Z,100063.91
2022-08-21T03:27:33.688Z,100068.28
2022-08-21T03:29:33.861Z,100062.06
2022-08-21T03:32:40.072Z,100067.59
2022-08-21T03:37:33.326Z,100072.78
2022-08-21T03:38:32.014Z,100066.75
2022-08-21T03:39:16.397Z,100058.72
2022-08-21T03:40:01.436Z,100058.03
2022-08-21T03:40:54.875Z,100067.59
2022-08-21T03:41:41.824Z,100067.91
2022-08-21T03:42:28.400Z,100071.25
2022-08-21T03:43:14.342Z,100066.88
2022-08-21T03:44:06.262Z,100066.88
2022-08-21T03:45:06.264Z,100066.88
2022-08-21T03:48:07.503Z,100071.56
2022-08-21T03:48:54.233Z,100068.88
2022-08-21T03:49:40.553Z,100074.25
2022-08-21T03:50:24.075Z,100068.88
2022-08-21T03:51:13.205Z,100074.91
2022-08-21T03:51:59.651Z,100069.72
2022-08-21T04:04:59.568Z,100072.53
2022-08-21T04:17:10.009Z,100073.03
2022-08-21T04:24:34.225Z,100079.38
2022-08-21T04:27:13.522Z,100085.41
2022-08-21T04:30:28.983Z,100088.09
2022-08-21T04:31:23.234Z,100084.56
2022-08-21T04:32:12.114Z,100091.78
2022-08-21T04:32:56.080Z,100085.56
2022-08-21T04:33:40.719Z,100084.03
2022-08-21T04:34:23.792Z,100090.22
2022-08-21T04:35:07.225Z,100086.88
2022-08-21T04:35:59.181Z,100088.53
2022-08-21T04:36:43.919Z,100084.19
2022-08-21T04:37:30.072Z,100091.22
2022-08-21T04:38:13.146Z,100094.03
2022-08-21T04:39:01.634Z,100091.38
2022-08-21T04:39:45.621Z,100089.53
2022-08-21T04:40:33.126Z,100088.38
2022-08-21T04:41:28.018Z,100086.72
2022-08-21T04:42:14.428Z,100090.38
2022-08-21T04:43:01.980Z,100087.69
2022-08-21T04:43:49.570Z,100092.91
2022-08-21T04:44:42.120Z,100093.72
2022-08-21T04:45:42.552Z,100086.88
2022-08-21T04:47:52.922Z,100090.22
2022-08-21T04:50:49.012Z,100088.69
2022-08-21T04:54:08.120Z,100086.72
2022-08-21T04:54:56.138Z,100087.84
2022-08-21T04:55:42.834Z,100085.34
2022-08-21T04:56:27.310Z,100083.47
2022-08-21T04:57:17.527Z,100090.38
2022-08-21T04:58:05.278Z,100085.03
2022-08-21T04:58:46.074Z,100078.84
2022-08-21T04:59:39.110Z,100086.72
2022-08-21T05:01:15.510Z,100083.19
2022-08-21T05:02:07.838Z,100086.88
2022-08-21T05:02:52.748Z,100085.34
2022-08-21T05:03:42.882Z,100087.84
2022-08-21T05:04:32.570Z,100091.50
2022-08-21T05:05:17.765Z,100097.88
2022-08-21T05:06:02.095Z,100092.38
2022-08-21T05:07:56.962Z,100093.66
2022-08-21T05:18:42.677Z,100094.19
2022-08-21T05:20:47.531Z,100096.19
2022-08-21T05:24:22.728Z,100093.50
2022-08-21T05:25:28.243Z,100098.03
2022-08-21T05:26:18.803Z,100095.50
2022-08-21T05:27:05.138Z,100096.50
2022-08-21T05:28:00.599Z,100097.00
2022-08-21T05:28:45.652Z,100088.31
2022-08-21T05:29:29.099Z,100094.34
2022-08-21T05:30:16.208Z,100094.03
2022-08-21T05:31:01.971Z,100102.22
2022-08-21T05:31:45.958Z,100102.22
2022-08-21T05:32:35.458Z,100098.56
2022-08-21T05:33:18.641Z,100095.88
2022-08-21T05:34:05.305Z,100101.38
2022-08-21T05:34:53.690Z,100102.22
2022-08-21T05:35:39.994Z,100102.38
2022-08-21T05:36:27.361Z,100103.38
2022-08-21T05:37:12.436Z,100105.03
2022-08-21T05:39:00.288Z,100100.84
2022-08-21T05:40:52.801Z,100099.00
2022-08-21T05:41:37.459Z,100104.22
2022-08-21T05:42:29.503Z,100096.34
2022-08-21T05:43:21.353Z,100100.19
2022-08-21T05:44:10.361Z,100098.03
2022-08-21T05:44:58.887Z,100087.31
2022-08-21T05:45:46.278Z,100101.53
2022-08-21T05:46:33.621Z,100093.81
2022-08-21T05:47:25.746Z,100096.88
2022-08-21T05:48:30.599Z,100100.41
2022-08-21T05:49:29.177Z,100097.72
2022-08-21T05:51:27.828Z,100094.19
2022-08-21T05:52:13.443Z,100096.88
2022-08-21T05:53:07.006Z,100101.22
2022-08-21T05:53:50.942Z,100099.53
2022-08-21T05:54:37.450Z,100099.25
2022-08-21T05:55:22.544Z,100097.44
2022-08-21T05:56:06.182Z,100100.09
2022-08-21T05:56:50.568Z,100094.59
2022-08-21T05:57:36.308Z,100092.75
2022-08-21T05:58:20.797Z,100101.91
2022-08-21T05:59:08.596Z,100091.50
2022-08-21T05:59:51.844Z,100098.03
2022-08-21T06:00:36.129Z,100096.34
2022-08-21T06:01:23.412Z,100093.81
2022-08-21T06:02:09.525Z,100095.34
2022-08-21T06:02:57.361Z,100089.00
2022-08-21T06:03:43.856Z,100090.69
2022-08-21T06:04:33.958Z,100094.34
2022-08-21T06:05:36.485Z,100095.88
2022-08-21T06:06:26.203Z,100090.53
2022-08-21T06:07:24.453Z,100098.25
2022-08-21T06:08:37.632Z,100092.91
2022-08-21T06:09:31.196Z,100092.75
2022-08-21T06:10:17.632Z,100099.94
2022-08-21T06:11:08.660Z,100092.91
2022-08-21T06:11:55.758Z,100092.91
2022-08-21T06:12:45.091Z,100092.06
2022-08-21T06:13:42.108Z,100091.22
2022-08-21T06:14:32.969Z,100094.91
2022-08-21T06:15:19.946Z,100097.72
2022-08-21T06:16:17.091Z,100097.19
2022-08-21T06:17:09.880Z,100096.19
2022-08-21T06:18:01.582Z,100098.03
2022-08-21T06:19:02.778Z,100095.06
2022-08-21T06:19:53.602Z,100096.03
2022-08-21T06:20:45.068Z,100095.56
2022-08-21T06:21:35.935Z,100094.19
2022-08-21T06:22:35.797Z,100095.88
2022-08-21T06:24:14.076Z,100092.91
2022-08-21T06:25:04.445Z,100096.25
2022-08-21T06:25:56.223Z,100090.91
2022-08-21T06:26:48.358Z,100087.56
2022-08-21T06:27:40.544Z,100098.25
2022-08-21T06:28:38.418Z,100092.91
2022-08-21T06:31:00.609Z,100098.94
2022-08-21T06:31:59.628Z,100092.75
2022-08-21T06:34:21.310Z,100089.25
2022-08-21T06:35:12.361Z,100092.75
2022-08-21T06:36:08.078Z,100087.56
2022-08-21T06:36:56.080Z,100090.22
2022-08-21T06:37:40.982Z,100086.41
2022-08-21T06:38:27.719Z,100087.41
2022-08-21T06:39:25.382Z,100086.56
2022-08-21T06:40:18.587Z,100086.78
2022-08-21T06:41:06.452Z,100088.91
2022-08-21T06:41:51.751Z,100088.09
2022-08-21T06:42:38.152Z,100082.56
2022-08-21T06:43:39.214Z,100085.78
2022-08-21T06:44:30.650Z,100085.09
2022-08-21T06:45:21.647Z,100087.78
2022-08-21T06:46:10.505Z,100082.44
2022-08-21T06:47:01.349Z,100088.59
2022-08-21T06:47:50.082Z,100082.44
2022-08-21T06:48:50.620Z,100081.28
2022-08-21T06:51:43.730Z,100079.06
2022-08-21T06:55:35.652Z,100074.53
2022-08-21T06:59:10.041Z,100073.41
2022-08-21T07:03:55.949Z,100078.75
2022-08-21T07:05:57.819Z,100076.91
2022-08-21T07:06:49.823Z,100081.59
2022-08-21T07:08:50.518Z,100079.75
2022-08-21T07:10:44.521Z,100078.59
2022-08-21T07:12:45.338Z,100077.59
2022-08-21T07:14:06.132Z,100077.44
2022-08-21T07:15:01.944Z,100083.66
2022-08-21T07:15:45.960Z,100087.63
2022-08-21T07:16:34.195Z,100082.94
2022-08-21T07:17:26.327Z,100083.09
2022-08-21T07:18:11.323Z,100085.63
2022-08-21T07:18:55.725Z,100083.81
2022-08-21T07:19:39.739Z,100081.97
2022-08-21T07:21:34.869Z,100080.28
2022-08-21T07:22:31.975Z,100084.63
2022-08-21T07:24:39.265Z,100080.44
2022-08-21T07:25:46.924Z,100071.56
2022-08-21T07:26:43.104Z,100073.94
2022-08-21T07:27:55.724Z,100077.59
2022-08-21T07:34:32.629Z,100082.78
2022-08-21T07:35:28.682Z,100085.94
2022-08-21T07:36:16.013Z,100085.78
2022-08-21T07:37:00.026Z,100090.00
2022-08-21T07:37:47.135Z,100086.34
2022-08-21T07:38:36.830Z,100089.69
2022-08-21T07:39:20.333Z,100086.34
2022-08-21T07:40:03.810Z,100078.13
2022-08-21T07:40:50.687Z,100083.97
2022-08-21T07:41:35.649Z,100086.63
2022-08-21T07:42:21.603Z,100086.34
2022-08-21T07:43:05.739Z,100080.28
2022-08-21T07:43:57.674Z,100075.94
2022-08-21T07:44:43.592Z,100081.44
2022-08-21T07:45:37.985Z,100079.28
2022-08-21T07:46:34.123Z,100086.63
2022-08-21T07:47:42.298Z,100081.28
2022-08-21T07:52:31.884Z,100084.56
2022-08-21T07:54:14.521Z,100077.06
2022-08-21T07:55:06.379Z,100078.75
2022-08-21T07:55:52.581Z,100076.09
2022-08-21T08:01:36.639Z,100073.09
2022-08-21T08:05:29.742Z,100074.78
2022-08-21T08:14:31.415Z,100079.97
2022-08-21T08:16:24.154Z,100079.13
2022-08-21T08:17:15.323Z,100070.94
2022-08-21T08:18:04.613Z,100074.63
2022-08-21T08:18:56.082Z,100069.09
2022-08-21T08:19:45.113Z,100070.28
2022-08-21T08:20:36.577Z,100071.63
2022-08-21T08:21:27.404Z,100066.28
2022-08-21T08:22:25.986Z,100064.75
2022-08-21T08:23:17.561Z,100065.44
2022-08-21T08:31:35.146Z,100062.63
2022-08-21T08:32:22.091Z,100058.09
2022-08-21T08:33:05.096Z,100061.59
2022-08-21T08:33:51.084Z,100059.22
2022-08-21T08:34:37.904Z,100063.75
2022-08-21T08:35:36.563Z,100063.59
2022-08-21T08:36:31.193Z,100065.44
2022-08-21T08:37:31.505Z,100060.09
2022-08-21T08:39:42.151Z,100060.34
2022-08-21T08:40:50.649Z,100061.47
2022-08-21T08:41:35.634Z,100058.66
2022-08-21T08:42:33.450Z,100058.25
2022-08-21T08:43:25.104Z,100061.47
2022-08-21T08:44:13.882Z,100057.00
2022-08-21T08:45:01.323Z,100063.31
2022-08-21T08:45:44.655Z,100061.47
2022-08-21T08:46:30.125Z,100067.97
2022-08-21T08:48:01.662Z,100064.28
2022-08-21T08:48:53.009Z,100063.31
2022-08-21T08:49:46.537Z,100060.34
2022-08-21T08:50:24.308Z,100063.69
2022-08-21T08:51:01.314Z,100064.00
2022-08-21T08:51:41.249Z,100059.66
2022-08-21T08:52:32.540Z,100057.00
2022-08-21T08:53:10.607Z,100061.47
2022-08-21T08:53:52.500Z,100066.53
2022-08-21T08:54:35.816Z,100053.28
2022-08-21T08:55:27.041Z,100064.28
2022-08-21T08:56:08.863Z,100059.50
2022-08-21T08:56:53.701Z,100062.34
2022-08-21T08:57:43.171Z,100064.00
2022-08-21T08:58:33.453Z,100058.66
2022-08-21T08:59:14.055Z,100066.00
2022-08-21T08:59:54.474Z,100066.00
2022-08-21T09:00:32.503Z,100055.41
2022-08-21T09:01:17.434Z,100065.84
2022-08-21T09:01:54.714Z,100059.66
2022-08-21T09:02:32.793Z,100066.84
2022-08-21T09:03:10.836Z,100055.28
2022-08-21T09:03:48.108Z,100057.00
2022-08-21T09:04:35.257Z,100053.56
2022-08-21T09:05:25.195Z,100063.31
2022-08-21T09:06:22.019Z,100055.41
2022-08-21T09:06:57.557Z,100051.63
2022-08-21T09:07:54.498Z,100055.00
2022-08-21T09:08:35.577Z,100055.28
2022-08-21T09:09:23.155Z,100049.78
2022-08-21T09:10:24.379Z,100046.81
2022-08-21T09:11:02.134Z,100047.78
2022-08-21T09:11:42.931Z,100055.28
2022-08-21T09:12:27.980Z,100053.28
2022-08-21T09:13:21.379Z,100047.63
2022-08-21T09:14:09.682Z,100043.59
2022-08-21T09:14:51.185Z,100040.94
2022-08-21T09:15:38.812Z,100041.75
2022-08-21T09:16:14.239Z,100051.91
2022-08-21T09:16:52.806Z,100046.28
2022-08-21T09:17:43.971Z,100043.25
2022-08-21T09:18:37.090Z,100041.75
2022-08-21T09:19:12.892Z,100039.91
2022-08-21T09:19:54.833Z,100049.63
2022-08-21T09:20:50.717Z,100045.13
2022-08-21T09:21:33.105Z,100044.59
2022-08-21T09:22:14.195Z,100036.78
2022-08-21T09:23:04.491Z,100043.97
2022-08-21T09:23:58.968Z,100040.28
2022-08-21T09:24:37.117Z,100038.94
2022-08-21T09:25:20.658Z,100041.59
2022-08-21T09:26:19.760Z,100043.16
2022-08-21T09:27:00.787Z,100036.09
2022-08-21T09:27:38.390Z,100037.22
2022-08-21T09:28:16.120Z,100039.22
2022-08-21T09:28:57.187Z,100036.41
2022-08-21T09:29:37.674Z,100040.28
2022-08-21T09:30:19.685Z,100036.09
2022-08-21T09:31:00.104Z,100040.28
2022-08-21T09:31:42.272Z,100031.56
2022-08-21T09:32:37.097Z,100030.91
2022-08-21T09:33:23.734Z,100032.56
2022-08-21T09:34:12.814Z,100033.25
2022-08-21T09:35:08.162Z,100034.63
2022-08-21T09:35:52.222Z,100034.94
2022-08-21T09:36:45.517Z,100027.03
2022-08-21T09:37:22.807Z,100030.94
2022-08-21T09:37:59.493Z,100031.94
2022-08-21T09:38:36.191Z,100032.97
2022-08-21T09:39:15.518Z,100037.44
2022-08-21T09:39:52.965Z,100030.44
2022-08-21T09:40:52.958Z,100029.88
2022-08-21T09:41:45.264Z,100031.88
2022-08-21T09:42:25.617Z,100031.56
2022-08-21T09:43:03.520Z,100027.91
2022-08-21T09:43:42.684Z,100025.06
2022-08-21T09:44:27.907Z,100029.56
2022-08-21T09:45:15.037Z,100036.94
2022-08-21T09:46:07.261Z,100031.25
2022-08-21T09:46:53.642Z,100026.22
2022-08-21T09:47:31.931Z,100034.41
2022-08-21T09:48:17.763Z,100034.25
2022-08-21T09:48:55.943Z,100036.09
2022-08-21T09:49:33.405Z,100029.19
2022-08-21T09:50:17.129Z,100031.72
2022-08-21T09:51:02.610Z,100031.88
2022-08-21T09:51:46.356Z,100030.91
2022-08-21T09:52:23.738Z,100030.06
2022-08-21T09:53:01.426Z,100029.06
2022-08-21T09:53:43.122Z,100027.03
2022-08-21T09:54:26.804Z,100034.63
2022-08-21T09:55:04.012Z,100026.28
2022-08-21T09:55:56.047Z,100025.75
2022-08-21T09:56:33.239Z,100027.59
2022-08-21T09:57:09.263Z,100024.78
2022-08-21T09:57:50.452Z,100025.59
2022-08-21T09:58:39.113Z,100021.06
2022-08-21T09:59:21.621Z,100029.25
2022-08-21T09:59:59.065Z,100027.28
2022-08-21T10:00:36.324Z,100023.59
2022-08-21T10:01:21.943Z,100024.63
2022-08-21T10:02:00.429Z,100027.59
2022-08-21T10:02:38.594Z,100024.63
2022-08-21T10:03:24.839Z,100027.44
2022-08-21T10:04:17.719Z,100023.91
2022-08-21T10:04:58.502Z,100022.25
2022-08-21T10:05:36.636Z,100022.56
2022-08-21T10:06:14.744Z,100021.16
2022-08-21T10:06:52.670Z,100013.81
2022-08-21T10:07:34.563Z,100014.38
2022-08-21T10:08:20.098Z,100013.50
2022-08-21T10:09:15.235Z,100019.88
2022-08-21T10:10:04.463Z,100025.59
2022-08-21T10:10:43.072Z,100021.94
2022-08-21T10:11:20.540Z,100025.28
2022-08-21T10:12:14.013Z,100018.09
2022-08-21T10:13:03.869Z,100018.25
2022-08-21T10:13:48.083Z,100018.25
2022-08-21T10:14:31.819Z,100018.41
2022-08-21T10:15:27.132Z,100012.88
2022-08-21T10:16:16.956Z,100013.91
2022-08-21T10:17:24.423Z,100016.03
2022-08-21T10:18:07.773Z,100016.75
2022-08-21T10:18:44.773Z,100018.56
2022-08-21T10:19:24.837Z,100022.25
2022-08-21T10:20:05.385Z,100009.84
2022-08-21T10:20:46.523Z,100011.84
2022-08-21T10:21:26.415Z,100009.53
2022-08-21T10:22:04.091Z,100013.03
2022-08-21T10:22:58.187Z,100006.84
2022-08-21T10:23:37.315Z,100014.06
2022-08-21T10:24:30.540Z,100016.03
2022-08-21T10:25:09.807Z,100009.84
2022-08-21T10:26:13.840Z,100011.84
2022-08-21T10:27:12.866Z,100016.88
2022-08-21T10:27:48.372Z,100010.69
2022-08-21T10:28:29.480Z,100006.19
2022-08-21T10:29:05.528Z,100014.88
2022-08-21T10:29:58.958Z,100008.72
2022-08-21T10:30:41.038Z,100009.38
2022-08-21T10:31:35.503Z,100006.84
2022-08-21T10:32:26.245Z,100003.50
2022-08-21T10:33:12.928Z,100005.16
2022-08-21T10:33:49.365Z,100004.19
2022-08-21T10:34:47.784Z,100007.00
2022-08-21T10:35:23.387Z,100002.50
2022-08-21T10:36:10.159Z,100004.19
2022-08-21T10:37:10.823Z,100006.81
2022-08-21T10:38:01.870Z,100006.19
2022-08-21T10:39:54.243Z,100006.19
2022-08-21T10:41:09.097Z,100008.56
2022-08-21T10:41:48.982Z,100005.31
2022-08-21T10:42:36.275Z,100009.53
2022-08-21T10:43:16.801Z,100007.69
2022-08-21T10:44:13.489Z,100009.53
2022-08-21T10:44:49.633Z,99998.16
2022-08-21T10:45:28.018Z,100002.13
2022-08-21T10:46:06.624Z,100004.81
2022-08-21T10:46:48.579Z,99994.91
2022-08-21T10:47:29.873Z,99999.97
2022-08-21T10:48:07.938Z,100003.50
2022-08-21T10:49:05.193Z,100001.50
2022-08-21T10:49:50.079Z,100002.34
2022-08-21T10:50:28.024Z,99997.13
2022-08-21T10:51:13.471Z,99998.66
2022-08-21T10:52:06.072Z,100002.34